createdAt,value
2023-03-15T00:03:15.006Z,21.38
2023-03-15T00:08:16.974Z,21.23
2023-03-15T00:13:18.427Z,21.06
2023-03-15T00:18:20.439Z,21.04
2023-03-15T00:23:21.858Z,21.17
2023-03-15T00:28:23.304Z,21.30
2023-03-15T00:33:24.713Z,21.14
2023-03-15T00:38:26.170Z,21.10
2023-03-15T00:43:27.543Z,21.07
2023-03-15T00:48:28.918Z,21.04
2023-03-15T00:53:30.718Z,21.22
2023-03-15T00:58:32.103Z,21.24
2023-03-15T01:03:36.646Z,21.24
2023-03-15T01:08:38.258Z,21.24
2023-03-15T01:13:39.712Z,21.40
2023-03-15T01:18:41.251Z,21.33
2023-03-15T01:23:42.675Z,21.15
2023-03-15T01:28:44.061Z,21.06
2023-03-15T01:33:45.491Z,21.45
2023-03-15T01:38:46.972Z,21.44
2023-03-15T01:43:48.376Z,21.55
2023-03-15T01:49:02.251Z,21.26
2023-03-15T01:54:08.076Z,21.19
2023-03-15T01:59:10.938Z,21.23
2023-03-15T02:04:15.350Z,21.36
2023-03-15T02:09:17.661Z,21.42
2023-03-15T02:14:19.057Z,21.23
2023-03-15T02:19:29.306Z,21.36
2023-03-15T02:24:33.841Z,21.42
2023-03-15T02:29:35.240Z,21.55
2023-03-15T02:34:36.643Z,21.41
2023-03-15T02:39:38.107Z,21.55
2023-03-15T02:44:40.177Z,21.38
2023-03-15T02:49:43.478Z,21.60
2023-03-15T02:54:44.927Z,21.57
2023-03-15T02:59:46.357Z,21.56
2023-03-15T03:04:48.002Z,21.52
2023-03-15T03:09:49.386Z,21.47
2023-03-15T03:14:50.759Z,21.58
2023-03-15T03:19:52.456Z,21.59
2023-03-15T03:24:53.876Z,21.58
2023-03-15T03:29:55.294Z,21.59
2023-03-15T03:34:56.694Z,21.67
2023-03-15T03:39:58.213Z,21.69
2023-03-15T03:44:59.589Z,21.70
2023-03-15T03:50:00.951Z,21.56
2023-03-15T03:55:03.603Z,21.57
2023-03-15T04:00:05.661Z,21.60
2023-03-15T04:05:07.536Z,21.46
2023-03-15T04:10:09.444Z,21.54
2023-03-15T04:15:11.591Z,21.36
2023-03-15T04:20:13.073Z,21.32
2023-03-15T04:25:14.555Z,21.31
2023-03-15T04:30:16.051Z,21.06
2023-03-15T04:35:17.494Z,21.00
2023-03-15T04:40:18.954Z,21.17
2023-03-15T04:45:20.352Z,21.16
2023-03-15T04:50:21.903Z,20.91
2023-03-15T04:55:23.370Z,21.08
2023-03-15T05:00:24.852Z,20.89
2023-03-15T05:05:26.349Z,21.08
2023-03-15T05:10:29.673Z,21.14
2023-03-15T05:15:31.301Z,20.93
2023-03-15T05:20:32.693Z,20.88
2023-03-15T05:25:34.068Z,21.10
2023-03-15T05:30:35.464Z,20.92
2023-03-15T05:35:36.875Z,20.90
2023-03-15T05:40:38.288Z,20.82
2023-03-15T05:45:40.033Z,20.96
2023-03-15T05:50:41.465Z,20.70
2023-03-15T05:55:42.869Z,20.54
2023-03-15T06:00:44.301Z,20.60
2023-03-15T06:05:45.678Z,20.85
2023-03-15T06:10:48.085Z,20.71
2023-03-15T06:15:49.452Z,20.83
2023-03-15T06:20:50.818Z,20.81
2023-03-15T06:25:52.235Z,20.67
2023-03-15T06:30:53.663Z,20.52
2023-03-15T06:35:55.099Z,20.73
2023-03-15T06:40:58.839Z,20.68
2023-03-15T06:46:00.360Z,20.62
2023-03-15T06:51:01.792Z,20.66
2023-03-15T06:56:03.213Z,20.80
2023-03-15T07:01:04.829Z,20.77
2023-03-15T07:06:06.219Z,20.74
2023-03-15T07:11:07.597Z,20.76
2023-03-15T07:16:09.004Z,20.68
2023-03-15T07:21:10.512Z,20.90
2023-03-15T07:26:11.891Z,20.94
2023-03-15T07:31:13.290Z,20.81
2023-03-15T07:36:14.709Z,20.53
2023-03-15T07:41:16.114Z,20.60
2023-03-15T07:46:17.509Z,20.47
2023-03-15T07:51:18.942Z,20.28
2023-03-15T07:56:20.344Z,20.67
2023-03-15T08:01:21.750Z,20.48
2023-03-15T08:06:23.138Z,20.24
2023-03-15T08:11:24.527Z,20.20
2023-03-15T08:16:25.954Z,20.16
2023-03-15T08:21:27.415Z,20.38
2023-03-15T08:26:28.796Z,20.41
2023-03-15T08:31:30.927Z,20.30
2023-03-15T08:36:33.061Z,20.04
2023-03-15T08:41:34.782Z,19.76
2023-03-15T08:46:36.222Z,19.90
2023-03-15T08:51:37.723Z,20.56
2023-03-15T08:56:39.186Z,20.72
2023-03-15T09:01:40.655Z,21.04
2023-03-15T09:06:42.141Z,21.48
2023-03-15T09:11:43.634Z,21.74
2023-03-15T09:16:45.081Z,22.23
2023-03-15T09:21:47.079Z,22.47
2023-03-15T09:26:48.493Z,22.46
2023-03-15T09:31:49.925Z,22.84
2023-03-15T09:36:52.908Z,22.80
2023-03-15T09:41:55.337Z,22.79
2023-03-15T09:47:08.815Z,22.45
2023-03-15T09:52:16.000Z,21.89
2023-03-15T09:57:19.742Z,21.81
2023-03-15T10:02:30.877Z,21.44
2023-03-15T10:07:32.834Z,21.55
2023-03-15T10:12:41.889Z,21.84
2023-03-15T10:17:58.460Z,21.76
2023-03-15T10:23:03.756Z,21.79
2023-03-15T10:28:12.791Z,22.02
2023-03-15T10:33:36.880Z,22.21
2023-03-15T10:38:38.454Z,22.15
2023-03-15T10:43:41.395Z,21.89
2023-03-15T10:48:59.792Z,21.89
2023-03-15T10:54:11.262Z,22.15
2023-03-15T10:59:20.869Z,21.43
2023-03-15T11:04:23.662Z,21.98
2023-03-15T11:09:26.512Z,21.76
2023-03-15T11:14:37.860Z,21.81
2023-03-15T11:19:42.038Z,21.21
2023-03-15T11:24:43.511Z,21.09
2023-03-15T11:29:49.938Z,21.01
2023-03-15T11:34:59.120Z,20.92
2023-03-15T11:40:18.130Z,20.88
2023-03-15T11:45:42.432Z,21.07
2023-03-15T11:50:45.334Z,21.10
2023-03-15T11:55:50.731Z,20.99
2023-03-15T12:00:54.957Z,20.96
2023-03-15T12:06:01.785Z,20.98
2023-03-15T12:11:10.607Z,20.86
2023-03-15T12:16:12.153Z,20.85
2023-03-15T12:21:24.236Z,20.63
2023-03-15T12:26:27.562Z,20.53
2023-03-15T12:31:56.116Z,20.63
2023-03-15T12:37:08.747Z,20.56
2023-03-15T12:42:29.032Z,20.98
2023-03-15T12:47:46.768Z,21.34
2023-03-15T12:52:53.385Z,21.61
2023-03-15T12:57:56.227Z,21.68
2023-03-15T13:03:10.425Z,21.29
2023-03-15T13:08:25.484Z,21.17
2023-03-15T13:13:32.825Z,21.20
2023-03-15T13:18:36.607Z,21.31
2023-03-15T13:23:38.523Z,21.46
2023-03-15T13:28:42.265Z,21.63
2023-03-15T13:33:49.565Z,21.42
2023-03-15T13:38:54.763Z,21.53
2023-03-15T13:44:02.055Z,21.71
2023-03-15T13:49:03.468Z,21.40
2023-03-15T13:54:17.448Z,21.45
2023-03-15T13:59:18.845Z,21.12
2023-03-15T14:04:20.232Z,21.43
2023-03-15T14:09:23.362Z,20.95
2023-03-15T14:14:26.500Z,20.78
2023-03-15T14:19:32.463Z,20.93
2023-03-15T14:24:38.705Z,20.65
2023-03-15T14:29:50.879Z,20.64
2023-03-15T14:34:58.332Z,20.50
2023-03-15T14:40:08.855Z,20.23
2023-03-15T14:45:11.682Z,20.44
2023-03-15T14:50:16.860Z,20.00
2023-03-15T14:55:20.786Z,20.13
2023-03-15T15:00:22.236Z,19.72
2023-03-15T15:05:26.362Z,19.75
2023-03-15T15:10:27.761Z,19.30
2023-03-15T15:15:29.139Z,19.36
2023-03-15T15:20:30.515Z,19.54
2023-03-15T15:25:33.665Z,19.58
2023-03-15T15:30:35.059Z,19.57
2023-03-15T15:35:36.444Z,19.66
2023-03-15T15:40:37.988Z,19.66
2023-03-15T15:45:39.630Z,19.53
2023-03-15T15:50:41.063Z,19.08
2023-03-15T15:55:43.947Z,18.98
2023-03-15T16:00:45.326Z,18.87
2023-03-15T16:05:46.799Z,18.71
2023-03-15T16:10:48.180Z,18.92
2023-03-15T16:15:49.601Z,19.06
2023-03-15T16:20:51.017Z,19.53
2023-03-15T16:25:55.364Z,19.44
2023-03-15T16:30:56.776Z,19.50
2023-03-15T16:35:58.192Z,19.52
2023-03-15T16:40:59.957Z,19.62
2023-03-15T16:46:01.381Z,19.67
2023-03-15T16:51:05.048Z,19.44
2023-03-15T16:56:09.084Z,19.38
2023-03-15T17:01:10.999Z,19.54
2023-03-15T17:06:20.136Z,19.73
2023-03-15T17:11:21.605Z,19.89
2023-03-15T17:16:23.316Z,20.08
2023-03-15T17:21:25.338Z,19.94
2023-03-15T17:26:29.052Z,20.09
2023-03-15T17:31:30.632Z,20.06
2023-03-15T17:36:37.484Z,19.93
2023-03-15T17:41:38.948Z,19.93
2023-03-15T17:46:40.444Z,20.34
2023-03-15T17:51:41.892Z,20.13
2023-03-15T17:56:43.306Z,19.88
2023-03-15T18:01:46.238Z,20.02
2023-03-15T18:06:47.672Z,19.88
2023-03-15T18:11:49.160Z,20.26
2023-03-15T18:16:50.580Z,20.13
2023-03-15T18:21:52.041Z,20.36
2023-03-15T18:26:53.417Z,20.30
2023-03-15T18:31:54.858Z,20.35
2023-03-15T18:36:56.315Z,20.48
2023-03-15T18:41:57.732Z,20.65
2023-03-15T18:46:59.127Z,20.62
2023-03-15T18:52:01.381Z,20.66
2023-03-15T18:57:02.763Z,20.71
2023-03-15T19:02:04.755Z,20.79
2023-03-15T19:07:06.214Z,20.99
2023-03-15T19:12:07.586Z,20.90
2023-03-15T19:17:09.133Z,20.93
2023-03-15T19:22:10.576Z,20.92
2023-03-15T19:27:11.992Z,21.08
2023-03-15T19:32:13.366Z,21.00
2023-03-15T19:37:14.971Z,21.26
2023-03-15T19:42:16.418Z,21.13
2023-03-15T19:47:17.815Z,21.18
2023-03-15T19:52:19.737Z,21.33
2023-03-15T19:57:21.222Z,21.17
2023-03-15T20:02:22.629Z,20.98
2023-03-15T20:07:23.991Z,21.24
2023-03-15T20:12:25.362Z,21.34
2023-03-15T20:17:27.369Z,21.03
2023-03-15T20:22:28.746Z,20.96
2023-03-15T20:27:33.791Z,20.87
2023-03-15T20:32:35.354Z,20.95
2023-03-15T20:37:37.512Z,20.99
2023-03-15T20:42:39.102Z,20.82
2023-03-15T20:47:41.198Z,20.92
2023-03-15T20:52:43.213Z,21.05
2023-03-15T20:57:44.631Z,21.19
2023-03-15T21:02:49.104Z,21.14
2023-03-15T21:07:50.506Z,20.78
2023-03-15T21:12:51.875Z,20.87
2023-03-15T21:17:53.245Z,21.08
2023-03-15T21:22:54.607Z,20.86
2023-03-15T21:27:56.336Z,21.02
2023-03-15T21:32:57.833Z,20.69
2023-03-15T21:37:59.216Z,21.00
2023-03-15T21:43:00.681Z,20.94
2023-03-15T21:48:02.074Z,20.94
2023-03-15T21:53:03.620Z,20.83
2023-03-15T21:58:05.056Z,20.95
2023-03-15T22:03:06.504Z,20.87
2023-03-15T22:08:07.919Z,21.10
2023-03-15T22:13:09.307Z,21.15
2023-03-15T22:18:10.790Z,21.05
2023-03-15T22:23:12.172Z,20.88
2023-03-15T22:28:13.645Z,21.04
2023-03-15T22:33:18.526Z,20.81
2023-03-15T22:38:19.903Z,20.88
2023-03-15T22:43:21.283Z,20.99
2023-03-15T22:48:23.141Z,21.08
2023-03-15T22:53:24.663Z,20.90
2023-03-15T22:58:26.137Z,20.85
2023-03-15T23:03:27.674Z,20.90
2023-03-15T23:08:29.052Z,20.83
2023-03-15T23:13:31.001Z,20.90
2023-03-15T23:18:35.295Z,20.84
2023-03-15T23:23:38.472Z,20.98
2023-03-15T23:28:39.871Z,20.86
2023-03-15T23:33:41.312Z,20.99
2023-03-15T23:38:42.758Z,20.85
2023-03-15T23:43:44.138Z,20.79
2023-03-15T23:48:45.591Z,20.78
2023-03-15T23:53:47.460Z,21.19
2023-03-15T23:58:48.827Z,21.01
